createdAt,value
2019-04-01T00:02:13.775Z,6.27
2019-04-01T00:04:49.107Z,6.30
2019-04-01T00:07:19.738Z,6.63
2019-04-01T00:09:53.049Z,5.47
2019-04-01T00:12:25.216Z,6.23
2019-04-01T00:14:55.814Z,6.17
2019-04-01T00:17:26.421Z,6.10
2019-04-01T00:19:56.985Z,6.07
2019-04-01T00:22:27.607Z,6.57
2019-04-01T00:24:58.379Z,6.00
2019-04-01T00:27:30.370Z,7.90
2019-04-01T00:30:03.464Z,6.70
2019-04-01T00:32:34.071Z,6.67
2019-04-01T00:35:04.841Z,5.70
2019-04-01T00:37:35.618Z,6.17
2019-04-01T00:40:06.275Z,6.20
2019-04-01T00:42:50.835Z,5.97
2019-04-01T00:45:23.710Z,5.50
2019-04-01T00:47:54.445Z,6.27
2019-04-01T00:50:26.383Z,6.70
2019-04-01T00:52:57.403Z,6.47
2019-04-01T00:55:28.281Z,6.23
2019-04-01T00:57:58.908Z,6.20
2019-04-01T01:00:29.482Z,6.47
2019-04-01T01:03:00.123Z,6.00
2019-04-01T01:05:30.719Z,5.87
2019-04-01T01:08:01.380Z,5.67
2019-04-01T01:10:32.489Z,5.50
2019-04-01T01:13:03.054Z,5.77
2019-04-01T01:15:34.762Z,6.47
2019-04-01T01:18:05.308Z,5.90
2019-04-01T01:20:38.244Z,5.40
2019-04-01T01:23:12.193Z,6.37
2019-04-01T01:25:42.829Z,5.87
2019-04-01T01:28:13.360Z,6.43
2019-04-01T01:30:43.968Z,5.63
2019-04-01T01:33:18.569Z,5.83
2019-04-01T01:35:49.486Z,5.67
2019-04-01T01:38:20.889Z,5.53
2019-04-01T01:40:51.456Z,5.70
2019-04-01T01:43:24.763Z,5.90
2019-04-01T01:45:55.493Z,6.30
2019-04-01T01:48:26.072Z,5.00
2019-04-01T01:50:57.086Z,5.90
2019-04-01T01:53:29.228Z,5.27
2019-04-01T01:55:59.779Z,4.83
2019-04-01T01:58:31.906Z,5.47
2019-04-01T02:01:06.939Z,5.27
2019-04-01T02:03:42.050Z,4.90
2019-04-01T02:06:12.769Z,5.10
2019-04-01T02:08:43.314Z,5.30
2019-04-01T02:11:13.916Z,4.93
2019-04-01T02:13:44.625Z,4.87
2019-04-01T02:16:15.855Z,5.13
2019-04-01T02:18:46.405Z,5.60
2019-04-01T02:21:20.314Z,5.13
2019-04-01T02:23:51.240Z,5.20
2019-04-01T02:26:21.833Z,4.43
2019-04-01T02:28:52.389Z,4.93
2019-04-01T02:31:23.421Z,4.73
2019-04-01T02:33:56.280Z,4.87
2019-04-01T02:36:28.185Z,4.97
2019-04-01T02:38:58.925Z,4.50
2019-04-01T02:41:29.541Z,4.40
2019-04-01T02:44:04.158Z,4.77
2019-04-01T02:46:34.803Z,5.33
2019-04-01T02:49:05.363Z,4.87
2019-04-01T02:51:36.002Z,4.73
2019-04-01T02:54:06.629Z,4.57
2019-04-01T02:56:37.252Z,4.83
2019-04-01T02:59:08.019Z,5.20
2019-04-01T03:01:42.033Z,5.00
2019-04-01T03:04:12.663Z,4.47
2019-04-01T03:06:46.268Z,4.80
2019-04-01T03:09:18.471Z,4.67
2019-04-01T03:11:49.178Z,5.27
2019-04-01T03:14:20.202Z,4.40
2019-04-01T03:16:51.002Z,4.20
2019-04-01T03:19:21.649Z,4.43
2019-04-01T03:21:52.287Z,4.13
2019-04-01T03:24:22.924Z,4.43
2019-04-01T03:26:53.822Z,5.17
2019-04-01T03:29:24.422Z,4.13
2019-04-01T03:31:54.962Z,4.70
2019-04-01T03:34:25.565Z,4.70
2019-04-01T03:36:56.206Z,5.20
2019-04-01T03:39:28.296Z,4.47
2019-04-01T03:42:01.765Z,4.70
2019-04-01T03:44:32.674Z,5.17
2019-04-01T03:47:03.439Z,4.60
2019-04-01T03:49:34.053Z,4.70
2019-04-01T03:52:04.728Z,5.17
2019-04-01T03:54:35.831Z,4.77
2019-04-01T03:57:06.599Z,5.37
2019-04-01T03:59:37.374Z,5.30
2019-04-01T04:02:13.079Z,5.17
2019-04-01T04:04:43.704Z,5.27
2019-04-01T04:07:14.875Z,5.03
2019-04-01T04:09:45.527Z,5.13
2019-04-01T04:12:16.258Z,5.50
2019-04-01T04:14:50.882Z,5.00
2019-04-01T04:17:19.174Z,4.60
2019-04-01T04:19:49.953Z,4.83
2019-04-01T04:22:21.596Z,5.07
2019-04-01T04:25:01.827Z,5.70
2019-04-01T04:27:32.596Z,5.70
2019-04-01T04:30:03.591Z,5.70
2019-04-01T04:32:37.422Z,5.77
2019-04-01T04:35:08.286Z,5.97
2019-04-01T04:37:40.285Z,5.50
2019-04-01T04:40:10.928Z,5.77
2019-04-01T04:42:41.553Z,5.37
2019-04-01T04:45:12.227Z,6.60
2019-04-01T04:47:43.063Z,5.40
2019-04-01T04:50:13.738Z,6.03
2019-04-01T04:52:52.834Z,5.77
2019-04-01T04:55:24.902Z,6.40
2019-04-01T04:57:56.070Z,6.40
2019-04-01T05:00:26.671Z,6.63
2019-04-01T05:02:59.876Z,6.57
2019-04-01T05:05:30.479Z,6.90
2019-04-01T05:08:01.026Z,6.53
2019-04-01T05:10:32.663Z,6.90
2019-04-01T05:13:13.484Z,6.73
2019-04-01T05:15:46.937Z,7.50
2019-04-01T05:18:17.562Z,8.17
2019-04-01T05:20:48.710Z,7.33
2019-04-01T05:23:19.391Z,7.33
2019-04-01T05:25:50.048Z,6.70
2019-04-01T05:28:23.119Z,6.87
2019-04-01T05:30:55.455Z,6.80
2019-04-01T05:33:26.658Z,5.80
2019-04-01T05:35:58.928Z,6.50
2019-04-01T05:38:29.518Z,6.47
2019-04-01T05:41:01.398Z,6.70
2019-04-01T05:43:33.826Z,6.70
2019-04-01T05:46:05.018Z,6.60
2019-04-01T05:48:35.623Z,7.17
2019-04-01T05:51:16.350Z,6.47
2019-04-01T05:53:47.289Z,6.43
2019-04-01T05:56:17.837Z,6.07
2019-04-01T05:58:49.964Z,6.83
2019-04-01T06:01:35.945Z,6.47
2019-04-01T06:04:06.974Z,6.53
2019-04-01T06:06:37.521Z,6.60
2019-04-01T06:09:09.416Z,6.70
2019-04-01T06:11:43.926Z,6.53
2019-04-01T06:14:14.778Z,6.43
2019-04-01T06:16:45.532Z,6.37
2019-04-01T06:19:19.164Z,6.03
2019-04-01T06:21:51.044Z,6.70
2019-04-01T06:24:24.704Z,6.03
2019-04-01T06:26:55.991Z,6.63
2019-04-01T06:29:26.811Z,5.93
2019-04-01T06:31:57.449Z,6.40
2019-04-01T06:34:28.815Z,5.10
2019-04-01T06:36:59.496Z,6.17
2019-04-01T06:39:30.435Z,5.67
2019-04-01T06:42:01.440Z,6.37
2019-04-01T06:44:32.113Z,6.63
2019-04-01T06:47:02.809Z,5.03
2019-04-01T06:49:33.431Z,5.23
2019-04-01T06:52:04.814Z,5.60
2019-04-01T06:54:35.524Z,5.20
2019-04-01T06:57:08.987Z,4.37
2019-04-01T06:59:41.661Z,4.57
2019-04-01T07:02:12.386Z,5.10
2019-04-01T07:04:43.171Z,5.07
2019-04-01T07:07:21.387Z,4.80
2019-04-01T07:09:52.069Z,5.47
2019-04-01T07:12:24.684Z,6.30
2019-04-01T07:14:55.350Z,5.80
2019-04-01T07:17:26.325Z,5.80
2019-04-01T07:20:01.036Z,5.87
2019-04-01T07:22:32.137Z,6.50
2019-04-01T07:25:09.198Z,6.93
2019-04-01T07:27:41.342Z,6.07
2019-04-01T07:30:19.471Z,7.37
2019-04-01T07:32:55.418Z,6.23
2019-04-01T07:35:26.258Z,6.63
2019-04-01T07:37:58.991Z,8.07
2019-04-01T07:40:32.561Z,6.73
2019-04-01T07:43:03.537Z,6.90
2019-04-01T07:45:35.748Z,6.43
2019-04-01T07:48:23.205Z,7.57
2019-04-01T07:51:02.750Z,7.90
2019-04-01T07:53:33.474Z,6.87
2019-04-01T07:56:11.401Z,6.63
2019-04-01T07:58:41.986Z,6.23
2019-04-01T08:01:13.315Z,5.90
2019-04-01T08:03:46.468Z,6.53
2019-04-01T08:06:17.374Z,5.50
2019-04-01T08:08:47.965Z,6.17
2019-04-01T08:11:21.165Z,5.97
2019-04-01T08:13:54.830Z,6.37
2019-04-01T08:16:25.410Z,6.10
2019-04-01T08:18:56.211Z,5.27
2019-04-01T08:21:29.108Z,5.33
2019-04-01T08:24:01.378Z,5.50
2019-04-01T08:26:33.544Z,5.90
2019-04-01T08:29:04.376Z,5.53
2019-04-01T08:31:35.494Z,5.90
2019-04-01T08:34:06.230Z,5.60
2019-04-01T08:36:36.896Z,5.50
2019-04-01T08:39:13.967Z,5.50
2019-04-01T08:41:44.568Z,6.00
2019-04-01T08:44:15.264Z,5.23
2019-04-01T08:46:46.260Z,6.07
2019-04-01T08:49:17.900Z,5.57
2019-04-01T08:51:49.927Z,5.43
2019-04-01T08:54:24.705Z,5.50
2019-04-01T08:57:01.356Z,6.03
2019-04-01T08:59:35.065Z,5.50
2019-04-01T09:02:17.617Z,6.20
2019-04-01T09:04:46.734Z,5.77
2019-04-01T09:07:33.120Z,5.77
2019-04-01T09:10:05.129Z,5.37
2019-04-01T09:12:39.272Z,6.50
2019-04-01T09:15:12.533Z,6.03
2019-04-01T09:17:46.273Z,5.70
2019-04-01T09:20:18.339Z,5.63
2019-04-01T09:22:59.110Z,6.43
2019-04-01T09:25:30.589Z,5.13
2019-04-01T09:28:04.472Z,6.47
2019-04-01T09:30:35.436Z,6.10
2019-04-01T09:33:14.214Z,6.07
2019-04-01T09:35:44.595Z,5.83
2019-04-01T09:38:24.706Z,6.40
2019-04-01T09:40:55.765Z,5.90
2019-04-01T09:43:50.439Z,5.73
2019-04-01T09:46:22.437Z,6.00
2019-04-01T09:48:53.069Z,6.20
2019-04-01T09:51:28.897Z,6.30
2019-04-01T09:54:05.566Z,6.30
2019-04-01T09:56:55.421Z,6.80
2019-04-01T09:59:28.565Z,7.40
2019-04-01T10:02:02.782Z,6.43
2019-04-01T10:04:36.913Z,5.87
2019-04-01T10:07:16.382Z,6.30
2019-04-01T10:09:51.644Z,6.60
2019-04-01T10:12:28.127Z,7.20
2019-04-01T10:14:59.494Z,6.93
2019-04-01T10:17:49.229Z,7.03
2019-04-01T10:20:21.432Z,7.23
2019-04-01T10:22:52.966Z,6.90
2019-04-01T10:25:23.546Z,7.07
2019-04-01T10:27:54.624Z,7.87
2019-04-01T10:30:25.276Z,7.77
2019-04-01T10:32:56.391Z,7.63
2019-04-01T10:35:28.359Z,7.10
2019-04-01T10:38:07.703Z,8.27
2019-04-01T10:40:57.291Z,7.03
2019-04-01T10:43:28.048Z,8.13
2019-04-01T10:45:59.092Z,8.00
2019-04-01T10:48:36.103Z,8.30
2019-04-01T10:51:06.523Z,7.77
2019-04-01T10:53:37.559Z,7.17
2019-04-01T10:56:08.917Z,8.07
2019-04-01T10:58:44.101Z,7.30
2019-04-01T11:01:17.290Z,8.20
2019-04-01T11:03:58.158Z,8.20
2019-04-01T11:06:31.388Z,8.20
2019-04-01T11:09:02.212Z,8.50
2019-04-01T11:11:37.932Z,7.97
2019-04-01T11:14:09.956Z,9.20
2019-04-01T11:16:46.587Z,7.93
2019-04-01T11:19:18.618Z,8.33
2019-04-01T11:21:49.259Z,8.83
2019-04-01T11:24:19.960Z,7.90
2019-04-01T11:26:58.509Z,9.07
2019-04-01T11:29:34.963Z,8.97
2019-04-01T11:32:18.248Z,8.53
2019-04-01T11:34:59.398Z,8.67
2019-04-01T11:37:35.856Z,8.80
2019-04-01T11:40:12.567Z,9.93
2019-04-01T11:42:49.549Z,8.27
2019-04-01T11:45:53.654Z,9.07
2019-04-01T11:48:10.124Z,9.63
2019-04-01T11:50:49.396Z,9.07
2019-04-01T11:53:26.272Z,9.07
2019-04-01T11:56:02.188Z,9.10
2019-04-01T11:58:35.033Z,9.07
2019-04-01T12:01:07.181Z,9.50
2019-04-01T12:03:43.801Z,9.67
2019-04-01T12:06:18.097Z,9.87
2019-04-01T12:08:53.871Z,9.97
2019-04-01T12:11:27.110Z,9.40
2019-04-01T12:14:05.294Z,9.53
2019-04-01T12:16:44.505Z,9.57
2019-04-01T12:19:20.014Z,8.43
2019-04-01T12:21:56.553Z,8.83
2019-04-01T12:24:33.413Z,8.60
2019-04-01T12:27:05.962Z,9.00
2019-04-01T12:29:37.119Z,8.33
2019-04-01T12:32:16.655Z,8.57
2019-04-01T12:34:51.521Z,8.40
2019-04-01T12:37:29.953Z,9.57
2019-04-01T12:40:02.513Z,8.60
2019-04-01T12:42:38.415Z,9.93
2019-04-01T12:45:10.403Z,9.37
2019-04-01T12:47:45.829Z,8.80
2019-04-01T12:50:21.697Z,8.90
2019-04-01T12:53:04.955Z,8.90
2019-04-01T12:55:45.019Z,9.13
2019-04-01T12:58:21.177Z,8.27
2019-04-01T13:00:54.318Z,8.43
2019-04-01T13:03:38.361Z,9.00
2019-04-01T13:06:11.289Z,8.27
2019-04-01T13:08:42.162Z,7.90
2019-04-01T13:11:18.535Z,7.93
2019-04-01T13:13:48.892Z,8.40
2019-04-01T13:20:57.595Z,9.47
2019-04-01T13:24:04.967Z,9.93
2019-04-01T13:26:38.677Z,8.67
2019-04-01T13:29:11.991Z,8.30
2019-04-01T13:31:47.201Z,8.50
2019-04-01T13:34:22.210Z,9.33
2019-04-01T13:37:02.836Z,9.97
2019-04-01T13:39:36.369Z,8.93
2019-04-01T13:42:07.061Z,8.57
2019-04-01T13:44:40.004Z,8.83
2019-04-01T13:47:13.252Z,9.63
2019-04-01T13:49:46.164Z,9.10
2019-04-01T13:52:21.203Z,9.23
2019-04-01T13:54:55.320Z,9.47
2019-04-01T13:57:32.407Z,9.67
2019-04-01T14:00:05.714Z,9.53
2019-04-01T14:02:53.519Z,9.57
2019-04-01T14:05:17.364Z,10.33
2019-04-01T14:07:50.932Z,9.90
2019-04-01T14:10:25.319Z,9.97
2019-04-01T14:13:14.446Z,10.30
2019-04-01T14:16:43.112Z,10.07
2019-04-01T14:19:17.802Z,10.50
2019-04-01T14:22:24.144Z,10.90
2019-04-01T14:25:01.085Z,11.03
2019-04-01T14:27:39.272Z,10.70
2019-04-01T14:30:13.504Z,10.30
2019-04-01T14:32:53.228Z,11.97
2019-04-01T14:35:33.281Z,11.40
2019-04-01T14:38:04.061Z,11.30
2019-04-01T14:40:42.320Z,11.60
2019-04-01T14:43:13.201Z,10.80
2019-04-01T14:45:48.131Z,11.57
2019-04-01T14:48:26.002Z,11.43
2019-04-01T14:51:05.313Z,12.03
2019-04-01T14:54:05.927Z,12.43
2019-04-01T14:56:57.027Z,11.90
2019-04-01T14:59:42.172Z,11.43
2019-04-01T15:02:16.741Z,12.33
2019-04-01T15:04:59.465Z,11.83
2019-04-01T15:07:40.158Z,12.73
2019-04-01T15:10:23.232Z,12.63
2019-04-01T15:13:05.676Z,11.87
2019-04-01T15:15:47.755Z,11.17
2019-04-01T15:18:21.296Z,12.07
2019-04-01T15:20:55.012Z,12.10
2019-04-01T15:23:59.725Z,12.30
2019-04-01T15:27:07.083Z,10.90
2019-04-01T15:29:42.229Z,11.20
2019-04-01T15:32:17.743Z,10.87
2019-04-01T15:34:56.606Z,10.60
2019-04-01T15:37:42.418Z,11.57
2019-04-01T15:40:24.539Z,9.60
2019-04-01T15:43:01.656Z,11.53
2019-04-01T15:45:35.785Z,10.70
2019-04-01T15:48:14.522Z,10.83
2019-04-01T15:50:51.905Z,11.13
2019-04-01T15:53:25.920Z,9.87
2019-04-01T15:55:57.315Z,9.90
2019-04-01T15:58:28.505Z,9.70
2019-04-01T16:01:01.640Z,9.73
2019-04-01T16:03:32.601Z,9.80
2019-04-01T16:06:07.356Z,9.47
2019-04-01T16:08:40.636Z,10.13
2019-04-01T16:11:18.111Z,9.77
2019-04-01T16:13:57.215Z,9.70
2019-04-01T16:19:15.425Z,10.67
2019-04-01T16:21:46.695Z,10.33
2019-04-01T16:24:27.400Z,10.73
2019-04-01T16:27:09.603Z,13.47
2019-04-01T16:29:48.518Z,10.97
2019-04-01T16:32:24.125Z,10.77
2019-04-01T16:35:05.019Z,11.87
2019-04-01T16:37:43.094Z,12.03
2019-04-01T16:40:14.348Z,10.17
2019-04-01T16:42:57.552Z,11.33
2019-04-01T16:45:31.576Z,9.67
2019-04-01T16:48:02.730Z,9.97
2019-04-01T16:50:42.734Z,10.03
2019-04-01T16:53:20.304Z,9.30
2019-04-01T16:55:54.726Z,8.77
2019-04-01T16:58:34.598Z,8.83
2019-04-01T17:01:15.633Z,8.87
2019-04-01T17:03:48.894Z,9.40
2019-04-01T17:06:31.410Z,8.53
2019-04-01T17:09:04.989Z,8.50
2019-04-01T17:11:39.544Z,9.47
2019-04-01T17:14:31.013Z,8.87
2019-04-01T17:17:04.228Z,9.13
2019-04-01T17:19:49.802Z,8.23
2019-04-01T17:22:21.808Z,7.93
2019-04-01T17:24:53.802Z,8.00
2019-04-01T17:27:26.418Z,8.20
2019-04-01T17:30:03.605Z,7.80
2019-04-01T17:32:45.766Z,6.80
2019-04-01T17:35:30.077Z,7.60
2019-04-01T17:38:07.128Z,7.77
2019-04-01T17:41:34.352Z,6.60
2019-04-01T17:44:16.239Z,6.97
2019-04-01T17:46:51.837Z,7.60
2019-04-01T17:49:33.778Z,7.03
2019-04-01T17:52:10.300Z,6.67
2019-04-01T17:54:44.469Z,7.50
2019-04-01T17:57:20.148Z,7.40
2019-04-01T18:00:17.063Z,7.30
2019-04-01T18:02:56.413Z,7.10
2019-04-01T18:05:33.622Z,7.10
2019-04-01T18:08:06.241Z,7.10
2019-04-01T18:10:43.480Z,5.67
2019-04-01T18:13:16.674Z,6.97
2019-04-01T18:16:19.302Z,6.70
2019-04-01T18:19:01.321Z,5.57
2019-04-01T18:21:38.221Z,4.90
2019-04-01T18:24:12.706Z,4.50
2019-04-01T18:26:51.460Z,4.57
2019-04-01T18:29:23.184Z,5.43
2019-04-01T18:32:04.718Z,5.40
2019-04-01T18:34:58.346Z,6.43
2019-04-01T18:37:33.745Z,6.40
2019-04-01T18:40:09.375Z,7.07
2019-04-01T18:42:45.553Z,6.73
2019-04-01T18:45:17.533Z,6.27
2019-04-01T18:47:53.760Z,5.53
2019-04-01T18:50:33.107Z,4.93
2019-04-01T18:53:08.721Z,5.47
2019-04-01T18:55:55.192Z,5.67
2019-04-01T18:58:29.244Z,5.37
2019-04-01T19:01:04.528Z,4.90
2019-04-01T19:03:45.534Z,4.93
2019-04-01T19:06:23.603Z,4.97
2019-04-01T19:09:08.767Z,5.10
2019-04-01T19:11:32.753Z,4.53
2019-04-01T19:14:12.352Z,4.77
2019-04-01T19:16:51.119Z,4.00
2019-04-01T19:19:25.809Z,3.80
2019-04-01T19:21:58.121Z,3.90
2019-04-01T19:24:29.507Z,3.80
2019-04-01T19:27:03.865Z,3.90
2019-04-01T19:29:36.527Z,3.80
2019-04-01T19:32:19.110Z,4.10
2019-04-01T19:34:52.611Z,3.80
2019-04-01T19:37:24.527Z,3.97
2019-04-01T19:39:59.968Z,5.90
2019-04-01T19:42:32.193Z,4.53
2019-04-01T19:45:17.634Z,5.07
2019-04-01T19:47:51.293Z,4.27
2019-04-01T19:50:25.212Z,4.47
2019-04-01T19:53:03.365Z,4.27
2019-04-01T19:55:34.915Z,4.40
2019-04-01T19:58:06.148Z,3.90
2019-04-01T20:00:47.555Z,4.33
2019-04-01T20:03:21.858Z,4.20
2019-04-01T20:06:02.294Z,3.87
2019-04-01T20:08:37.271Z,3.73
2019-04-01T20:11:15.143Z,4.00
2019-04-01T20:13:49.553Z,3.80
2019-04-01T20:16:24.803Z,3.80
2019-04-01T20:18:57.869Z,4.30
2019-04-01T20:21:33.875Z,4.00
2019-04-01T20:24:09.821Z,3.83
2019-04-01T20:26:42.855Z,4.67
2019-04-01T20:29:14.153Z,4.73
2019-04-01T20:31:47.237Z,4.40
2019-04-01T20:34:23.040Z,4.67
2019-04-01T20:36:56.052Z,4.37
2019-04-01T20:39:31.919Z,4.50
2019-04-01T20:42:09.948Z,4.93
2019-04-01T20:44:46.613Z,4.53
2019-04-01T20:47:17.898Z,4.60
2019-04-01T20:49:55.672Z,4.10
2019-04-01T20:52:30.969Z,4.57
2019-04-01T20:55:05.575Z,4.33
2019-04-01T20:57:37.872Z,5.10
2019-04-01T21:00:10.997Z,4.57
2019-04-01T21:02:55.933Z,4.27
2019-04-01T21:05:31.577Z,3.53
2019-04-01T21:08:15.353Z,3.93
2019-04-01T21:10:47.489Z,4.70
2019-04-01T21:13:18.491Z,3.60
2019-04-01T21:15:49.524Z,4.10
2019-04-01T21:18:30.819Z,3.87
2019-04-01T21:21:17.113Z,3.60
2019-04-01T21:23:46.533Z,4.00
2019-04-01T21:26:20.289Z,3.63
2019-04-01T21:29:03.662Z,3.80
2019-04-01T21:31:47.201Z,4.70
2019-04-01T21:34:20.196Z,4.00
2019-04-01T21:36:59.302Z,3.73
2019-04-01T21:39:33.325Z,4.30
2019-04-01T21:42:04.006Z,3.87
2019-04-01T21:44:40.899Z,3.33
2019-04-01T21:47:13.278Z,3.50
2019-04-01T21:49:45.513Z,4.27
2019-04-01T21:52:17.546Z,3.67
2019-04-01T21:54:48.114Z,3.97
2019-04-01T21:57:20.610Z,3.30
2019-04-01T21:59:53.239Z,3.40
2019-04-01T22:02:35.785Z,3.83
2019-04-01T22:05:03.079Z,3.67
2019-04-01T22:07:35.805Z,3.33
2019-04-01T22:10:06.816Z,3.93
2019-04-01T22:12:42.300Z,3.90
2019-04-01T22:15:18.797Z,3.50
2019-04-01T22:17:49.252Z,3.73
2019-04-01T22:20:21.421Z,3.60
2019-04-01T22:22:58.356Z,3.87
2019-04-01T22:25:30.706Z,4.07
2019-04-01T22:28:01.319Z,3.83
2019-04-01T22:30:32.000Z,3.47
2019-04-01T22:33:02.600Z,4.10
2019-04-01T22:35:39.112Z,3.77
2019-04-01T22:38:08.237Z,3.93
2019-04-01T22:40:39.174Z,3.23
2019-04-01T22:43:09.794Z,3.57
2019-04-01T22:45:40.465Z,3.80
2019-04-01T22:48:14.203Z,3.37
2019-04-01T22:50:45.370Z,3.37
2019-04-01T22:53:16.028Z,3.10
2019-04-01T22:55:46.884Z,3.33
2019-04-01T22:58:19.269Z,3.17
2019-04-01T23:00:50.263Z,3.30
2019-04-01T23:03:20.897Z,3.37
2019-04-01T23:05:55.512Z,3.00
2019-04-01T23:08:25.754Z,3.10
2019-04-01T23:10:56.549Z,3.60
2019-04-01T23:13:29.922Z,3.30
2019-04-01T23:16:00.560Z,4.60
2019-04-01T23:18:31.240Z,3.60
2019-04-01T23:21:02.215Z,3.30
2019-04-01T23:23:33.271Z,3.20
2019-04-01T23:26:04.124Z,3.37
2019-04-01T23:28:34.807Z,3.20
2019-04-01T23:31:07.048Z,3.53
2019-04-01T23:33:37.684Z,3.70
2019-04-01T23:36:12.175Z,3.37
2019-04-01T23:38:43.009Z,3.57
2019-04-01T23:41:13.799Z,3.20
2019-04-01T23:43:46.036Z,3.23
2019-04-01T23:46:17.100Z,3.43
2019-04-01T23:48:47.745Z,3.10
2019-04-01T23:51:18.323Z,3.17
2019-04-01T23:53:51.474Z,2.83
2019-04-01T23:56:22.048Z,3.00
2019-04-01T23:58:53.160Z,3.17
